createdAt,value
2022-11-25T00:01:36.498Z,3.65
2022-11-25T00:04:24.081Z,3.50
2022-11-25T00:07:11.697Z,3.44
2022-11-25T00:09:59.314Z,3.33
2022-11-25T00:12:46.878Z,3.27
2022-11-25T00:15:34.478Z,3.16
2022-11-25T00:18:22.043Z,3.57
2022-11-25T00:21:09.617Z,3.59
2022-11-25T00:23:57.178Z,3.65
2022-11-25T00:26:44.765Z,3.61
2022-11-25T00:29:32.307Z,3.57
2022-11-25T00:32:19.911Z,3.59
2022-11-25T00:35:07.433Z,3.57
2022-11-25T00:37:55.001Z,3.51
2022-11-25T00:40:42.576Z,3.43
2022-11-25T00:43:30.150Z,3.38
2022-11-25T00:46:17.804Z,3.40
2022-11-25T00:49:05.385Z,3.38
2022-11-25T00:51:52.955Z,3.21
2022-11-25T00:54:40.526Z,3.48
2022-11-25T00:57:28.095Z,3.59
2022-11-25T01:00:15.627Z,3.30
2022-11-25T01:03:03.212Z,3.26
2022-11-25T01:05:50.800Z,3.40
2022-11-25T01:08:38.374Z,3.37
2022-11-25T01:11:25.960Z,3.38
2022-11-25T01:14:13.537Z,3.38
2022-11-25T01:17:01.102Z,3.27
2022-11-25T01:19:48.652Z,3.37
2022-11-25T01:22:36.202Z,3.50
2022-11-25T01:25:23.756Z,3.57
2022-11-25T01:28:11.312Z,3.56
2022-11-25T01:30:58.883Z,3.66
2022-11-25T01:33:46.443Z,4.08
2022-11-25T01:36:33.985Z,4.13
2022-11-25T01:39:23.507Z,4.58
2022-11-25T01:42:14.522Z,4.60
2022-11-25T01:45:02.213Z,4.47
2022-11-25T01:47:49.755Z,4.78
2022-11-25T01:50:37.322Z,5.07
2022-11-25T01:53:24.878Z,5.02
2022-11-25T01:56:12.446Z,4.87
2022-11-25T01:59:00.006Z,4.97
2022-11-25T02:01:47.637Z,5.13
2022-11-25T02:04:35.564Z,4.95
2022-11-25T02:07:23.366Z,4.95
2022-11-25T02:10:10.978Z,5.05
2022-11-25T02:12:58.580Z,5.51
2022-11-25T02:15:46.123Z,5.30
2022-11-25T02:18:33.685Z,5.20
2022-11-25T02:21:21.265Z,4.91
2022-11-25T02:24:08.850Z,4.66
2022-11-25T02:26:56.405Z,4.26
2022-11-25T02:29:46.014Z,4.16
2022-11-25T02:32:33.602Z,3.77
2022-11-25T02:35:21.157Z,3.71
2022-11-25T02:38:08.703Z,3.26
2022-11-25T02:40:56.314Z,3.44
2022-11-25T02:43:43.922Z,3.49
2022-11-25T02:46:31.485Z,3.12
2022-11-25T02:49:19.094Z,2.82
2022-11-25T02:52:06.682Z,2.71
2022-11-25T02:54:54.257Z,2.81
2022-11-25T02:57:41.842Z,2.66
2022-11-25T03:00:29.419Z,2.56
2022-11-25T03:03:17.090Z,2.39
2022-11-25T03:06:04.629Z,2.33
2022-11-25T03:08:52.214Z,2.43
2022-11-25T03:11:39.769Z,2.48
2022-11-25T03:14:27.408Z,2.67
2022-11-25T03:17:14.956Z,2.58
2022-11-25T03:20:02.514Z,2.55
2022-11-25T03:22:50.041Z,2.49
2022-11-25T03:25:37.617Z,2.57
2022-11-25T03:28:25.169Z,2.66
2022-11-25T03:31:12.825Z,2.70
2022-11-25T03:34:00.422Z,2.36
2022-11-25T03:36:48.050Z,2.61
2022-11-25T03:39:35.621Z,2.44
2022-11-25T03:42:23.197Z,2.44
2022-11-25T03:45:10.745Z,2.44
2022-11-25T03:47:58.295Z,2.32
2022-11-25T03:50:45.890Z,2.65
2022-11-25T03:53:33.449Z,2.61
2022-11-25T03:56:21.011Z,2.89
2022-11-25T03:59:08.550Z,2.61
2022-11-25T04:01:56.119Z,2.54
2022-11-25T04:04:43.687Z,2.60
2022-11-25T04:07:31.282Z,2.62
2022-11-25T04:10:18.841Z,2.81
2022-11-25T04:13:19.224Z,2.82
2022-11-25T04:16:16.227Z,2.85
2022-11-25T04:19:03.827Z,2.86
2022-11-25T04:21:52.588Z,2.79
2022-11-25T04:24:40.186Z,2.73
2022-11-25T04:27:27.762Z,2.97
2022-11-25T04:30:15.307Z,2.72
2022-11-25T04:33:02.876Z,2.92
2022-11-25T04:35:52.461Z,3.30
2022-11-25T04:38:40.006Z,3.14
2022-11-25T04:41:27.585Z,3.30
2022-11-25T04:44:15.181Z,3.56
2022-11-25T04:47:02.798Z,3.60
2022-11-25T04:49:50.361Z,3.50
2022-11-25T04:52:37.961Z,3.52
2022-11-25T04:55:25.514Z,3.58
2022-11-25T04:58:13.098Z,3.83
2022-11-25T05:01:00.711Z,3.81
2022-11-25T05:03:51.771Z,3.97
2022-11-25T05:06:42.176Z,4.10
2022-11-25T05:09:29.742Z,3.97
2022-11-25T05:12:17.303Z,3.71
2022-11-25T05:15:04.881Z,4.35
2022-11-25T05:17:52.468Z,4.22
2022-11-25T05:20:40.057Z,3.98
2022-11-25T05:23:27.626Z,3.76
2022-11-25T05:26:15.191Z,3.68
2022-11-25T05:29:02.809Z,3.52
2022-11-25T05:31:50.403Z,3.49
2022-11-25T05:34:38.261Z,2.85
2022-11-25T05:37:28.083Z,3.05
2022-11-25T05:40:15.644Z,3.12
2022-11-25T05:43:03.219Z,3.34
2022-11-25T05:45:50.854Z,2.98
2022-11-25T05:48:38.485Z,2.85
2022-11-25T05:51:26.071Z,3.00
2022-11-25T05:54:13.648Z,2.75
2022-11-25T05:57:01.196Z,2.90
2022-11-25T05:59:48.781Z,2.89
2022-11-25T06:02:36.564Z,2.86
2022-11-25T06:05:24.325Z,3.16
2022-11-25T06:08:11.883Z,2.79
2022-11-25T06:10:59.452Z,2.65
2022-11-25T06:13:47.058Z,2.60
2022-11-25T06:16:34.727Z,2.66
2022-11-25T06:19:22.302Z,2.82
2022-11-25T06:22:09.866Z,2.73
2022-11-25T06:25:03.107Z,2.83
2022-11-25T06:28:11.978Z,2.85
2022-11-25T06:30:58.902Z,3.36
2022-11-25T06:33:46.493Z,3.13
2022-11-25T06:36:34.058Z,3.15
2022-11-25T06:39:21.669Z,2.98
2022-11-25T06:42:09.270Z,3.02
2022-11-25T06:44:56.836Z,3.18
2022-11-25T06:47:44.464Z,3.12
2022-11-25T06:50:32.030Z,2.73
2022-11-25T06:53:23.984Z,2.90
2022-11-25T06:56:11.813Z,2.97
2022-11-25T06:58:59.391Z,2.85
2022-11-25T07:01:47.026Z,2.87
2022-11-25T07:04:35.006Z,3.61
2022-11-25T07:07:22.801Z,3.63
2022-11-25T07:10:10.386Z,3.45
2022-11-25T07:12:57.909Z,3.05
2022-11-25T07:15:45.482Z,3.07
2022-11-25T07:18:33.038Z,3.01
2022-11-25T07:21:20.609Z,2.78
2022-11-25T07:24:08.173Z,2.63
2022-11-25T07:26:55.761Z,2.95
2022-11-25T07:30:35.455Z,2.48
2022-11-25T07:32:50.866Z,2.41
2022-11-25T07:35:38.421Z,2.85
2022-11-25T07:38:25.964Z,2.71
2022-11-25T07:41:13.584Z,2.50
2022-11-25T07:44:01.177Z,2.73
2022-11-25T07:46:48.758Z,2.40
2022-11-25T07:49:36.555Z,2.66
2022-11-25T07:52:24.310Z,2.61
2022-11-25T07:55:11.893Z,2.62
2022-11-25T07:57:59.478Z,2.64
2022-11-25T08:00:47.057Z,2.70
2022-11-25T08:03:34.618Z,2.82
2022-11-25T08:06:22.173Z,2.98
2022-11-25T08:09:09.790Z,3.10
2022-11-25T08:11:57.371Z,2.73
2022-11-25T08:14:44.964Z,2.95
2022-11-25T08:17:32.553Z,2.70
2022-11-25T08:20:20.099Z,2.68
2022-11-25T08:23:07.675Z,2.63
2022-11-25T08:25:55.235Z,2.67
2022-11-25T08:28:42.771Z,2.85
2022-11-25T08:31:30.457Z,2.94
2022-11-25T08:34:18.123Z,2.88
2022-11-25T08:37:05.707Z,2.85
2022-11-25T08:39:53.931Z,2.82
2022-11-25T08:42:41.690Z,2.81
2022-11-25T08:45:29.266Z,2.64
2022-11-25T08:48:16.958Z,2.54
2022-11-25T08:51:04.545Z,2.45
2022-11-25T08:53:52.145Z,2.52
2022-11-25T08:56:39.707Z,2.64
2022-11-25T08:59:27.371Z,3.40
2022-11-25T09:02:15.016Z,3.78
2022-11-25T09:05:02.638Z,3.90
2022-11-25T09:07:50.299Z,3.55
2022-11-25T09:10:37.909Z,3.06
2022-11-25T09:13:25.483Z,2.96
2022-11-25T09:16:13.066Z,3.13
2022-11-25T09:19:00.689Z,2.83
2022-11-25T09:21:48.319Z,2.38
2022-11-25T09:24:35.899Z,2.43
2022-11-25T09:27:23.537Z,2.40
2022-11-25T09:30:11.143Z,2.08
2022-11-25T09:32:58.724Z,2.02
2022-11-25T09:35:46.270Z,2.17
2022-11-25T09:38:35.695Z,2.17
2022-11-25T09:41:25.249Z,2.24
2022-11-25T09:44:12.850Z,1.89
2022-11-25T09:47:00.504Z,2.04
2022-11-25T09:49:48.115Z,2.03
2022-11-25T09:52:35.655Z,1.97
2022-11-25T09:55:25.250Z,1.97
2022-11-25T09:58:12.877Z,1.76
2022-11-25T10:01:00.463Z,1.77
2022-11-25T10:03:48.040Z,1.79
2022-11-25T10:06:35.701Z,1.78
2022-11-25T10:09:23.318Z,1.81
2022-11-25T10:12:10.919Z,1.90
2022-11-25T10:14:58.514Z,1.72
2022-11-25T10:17:46.085Z,1.84
2022-11-25T10:20:35.682Z,1.73
2022-11-25T10:23:27.811Z,1.85
2022-11-25T10:26:15.994Z,1.67
2022-11-25T10:29:03.558Z,1.39
2022-11-25T10:31:51.112Z,1.54
2022-11-25T10:34:39.035Z,1.78
2022-11-25T10:37:26.738Z,1.49
2022-11-25T10:40:14.279Z,1.54
2022-11-25T10:43:01.830Z,1.49
2022-11-25T10:45:49.414Z,1.54
2022-11-25T10:48:41.311Z,1.44
2022-11-25T10:51:31.545Z,1.41
2022-11-25T10:54:25.505Z,1.68
2022-11-25T10:57:14.990Z,1.59
2022-11-25T11:00:02.554Z,2.05
2022-11-25T11:02:50.191Z,2.00
2022-11-25T11:05:41.250Z,1.67
2022-11-25T11:08:31.282Z,1.71
2022-11-25T11:11:18.841Z,1.77
2022-11-25T11:14:06.379Z,1.76
2022-11-25T11:16:53.943Z,1.56
2022-11-25T11:19:41.514Z,1.90
2022-11-25T11:22:29.106Z,1.91
2022-11-25T11:25:16.702Z,1.93
2022-11-25T11:28:04.253Z,2.02
2022-11-25T11:30:51.862Z,1.81
2022-11-25T11:33:39.466Z,1.84
2022-11-25T11:36:27.066Z,1.78
2022-11-25T11:39:14.624Z,1.87
2022-11-25T11:42:02.207Z,1.89
2022-11-25T11:44:49.795Z,1.90
2022-11-25T11:47:37.367Z,1.71
2022-11-25T11:50:24.923Z,1.79
2022-11-25T11:53:12.496Z,1.62
2022-11-25T11:56:33.111Z,1.77
2022-11-25T11:59:07.586Z,1.55
2022-11-25T12:01:55.228Z,1.70
2022-11-25T12:04:42.816Z,1.54
2022-11-25T12:07:30.389Z,1.57
2022-11-25T12:10:17.972Z,1.46
2022-11-25T12:13:05.537Z,1.49
2022-11-25T12:15:53.148Z,1.71
2022-11-25T12:18:40.720Z,1.47
2022-11-25T12:21:28.311Z,1.41
2022-11-25T12:24:15.850Z,1.48
2022-11-25T12:27:03.409Z,1.44
2022-11-25T12:29:50.994Z,1.61
2022-11-25T12:32:38.577Z,1.34
2022-11-25T12:35:26.168Z,1.64
2022-11-25T12:38:13.778Z,1.46
2022-11-25T12:41:01.330Z,1.37
2022-11-25T12:43:48.897Z,1.48
2022-11-25T12:46:36.460Z,1.31
2022-11-25T12:49:24.039Z,1.40
2022-11-25T12:52:11.598Z,1.30
2022-11-25T12:54:59.168Z,1.37
2022-11-25T12:57:49.265Z,1.25
2022-11-25T13:00:42.026Z,1.26
2022-11-25T13:03:30.308Z,1.37
2022-11-25T13:06:17.864Z,1.18
2022-11-25T13:09:05.394Z,1.33
2022-11-25T13:11:53.210Z,1.61
2022-11-25T13:14:41.856Z,1.51
2022-11-25T13:17:29.845Z,1.52
2022-11-25T13:20:17.507Z,1.36
2022-11-25T13:23:05.101Z,1.51
2022-11-25T13:25:52.653Z,1.83
2022-11-25T13:28:40.217Z,1.96
2022-11-25T13:31:27.857Z,2.20
2022-11-25T13:34:15.459Z,2.20
2022-11-25T13:37:03.053Z,2.37
2022-11-25T13:39:50.593Z,2.27
2022-11-25T13:42:38.162Z,2.05
2022-11-25T13:45:25.746Z,2.28
2022-11-25T13:48:13.357Z,2.20
2022-11-25T13:51:11.149Z,2.49
2022-11-25T13:53:59.352Z,2.48
2022-11-25T13:56:46.899Z,2.91
2022-11-25T13:59:34.718Z,2.46
2022-11-25T14:02:22.720Z,1.88
2022-11-25T14:05:10.450Z,1.60
2022-11-25T14:07:58.027Z,1.85
2022-11-25T14:10:45.648Z,1.71
2022-11-25T14:13:33.226Z,2.10
2022-11-25T14:16:20.868Z,2.08
2022-11-25T14:22:15.942Z,2.58
2022-11-25T14:25:03.495Z,2.13
2022-11-25T14:27:51.076Z,2.11
2022-11-25T14:30:38.633Z,1.99
2022-11-25T14:33:26.199Z,1.82
2022-11-25T14:36:13.767Z,1.63
2022-11-25T14:39:01.356Z,1.66
2022-11-25T14:41:48.950Z,1.64
2022-11-25T14:44:36.562Z,1.70
2022-11-25T14:47:24.144Z,1.50
2022-11-25T14:50:33.678Z,1.71
2022-11-25T14:53:19.209Z,1.61
2022-11-25T14:56:06.785Z,1.51
2022-11-25T14:58:54.350Z,1.44
2022-11-25T15:01:41.916Z,1.67
2022-11-25T15:04:29.780Z,1.55
2022-11-25T15:07:17.472Z,1.72
2022-11-25T15:10:05.071Z,1.71
2022-11-25T15:12:53.791Z,2.11
2022-11-25T15:15:41.465Z,1.65
2022-11-25T15:18:29.045Z,1.80
2022-11-25T15:21:16.609Z,1.97
2022-11-25T15:24:04.194Z,1.75
2022-11-25T15:26:51.782Z,1.75
2022-11-25T15:29:39.426Z,1.54
2022-11-25T15:32:27.172Z,1.66
2022-11-25T15:35:16.763Z,1.61
2022-11-25T15:38:04.350Z,1.56
2022-11-25T15:40:51.926Z,1.50
2022-11-25T15:43:39.478Z,2.08
2022-11-25T15:46:27.040Z,2.15
2022-11-25T15:49:14.606Z,2.10
2022-11-25T15:52:02.191Z,2.56
2022-11-25T15:54:49.771Z,3.04
2022-11-25T15:57:37.338Z,4.67
2022-11-25T16:00:24.919Z,3.19
2022-11-25T16:03:12.463Z,2.68
2022-11-25T16:06:02.051Z,2.46
2022-11-25T16:08:49.640Z,2.51
2022-11-25T16:11:37.211Z,2.17
2022-11-25T16:14:24.858Z,2.02
2022-11-25T16:17:12.417Z,1.97
2022-11-25T16:20:00.014Z,2.50
2022-11-25T16:22:47.571Z,2.60
2022-11-25T16:25:35.147Z,2.34
2022-11-25T16:28:22.706Z,2.16
2022-11-25T16:31:10.251Z,2.14
2022-11-25T16:33:57.842Z,2.18
2022-11-25T16:36:45.410Z,2.20
2022-11-25T16:39:32.982Z,2.25
2022-11-25T16:42:20.558Z,2.40
2022-11-25T16:45:08.128Z,2.49
2022-11-25T16:47:55.691Z,2.47
2022-11-25T16:50:43.260Z,3.12
2022-11-25T16:53:30.878Z,4.14
2022-11-25T16:56:18.427Z,5.35
2022-11-25T16:59:06.046Z,4.05
2022-11-25T17:01:53.721Z,4.82
2022-11-25T17:04:41.326Z,4.18
2022-11-25T17:07:33.662Z,4.10
2022-11-25T17:10:21.660Z,4.35
2022-11-25T17:13:09.237Z,5.68
2022-11-25T17:15:56.963Z,6.11
2022-11-25T17:18:47.848Z,5.14
2022-11-25T17:21:35.495Z,3.77
2022-11-25T17:24:23.128Z,3.84
2022-11-25T17:27:10.728Z,3.20
2022-11-25T17:29:58.321Z,2.67
2022-11-25T17:32:45.886Z,3.14
2022-11-25T17:35:33.479Z,3.36
2022-11-25T17:38:21.057Z,3.22
2022-11-25T17:41:08.624Z,3.14
2022-11-25T17:43:56.196Z,3.22
2022-11-25T17:46:43.799Z,2.96
2022-11-25T17:49:31.365Z,2.45
2022-11-25T17:52:18.972Z,2.07
2022-11-25T17:55:06.520Z,2.55
2022-11-25T17:57:54.097Z,2.66
2022-11-25T18:00:41.666Z,2.85
2022-11-25T18:03:29.248Z,2.80
2022-11-25T18:06:16.813Z,3.01
2022-11-25T18:09:04.395Z,2.86
2022-11-25T18:11:51.956Z,3.72
2022-11-25T18:14:39.773Z,3.65
2022-11-25T18:17:27.521Z,2.63
2022-11-25T18:20:18.598Z,2.27
2022-11-25T18:23:06.176Z,2.11
2022-11-25T18:25:53.767Z,2.29
2022-11-25T18:28:41.372Z,2.21
2022-11-25T18:31:29.050Z,2.33
2022-11-25T18:34:16.674Z,2.05
2022-11-25T18:37:05.141Z,2.19
2022-11-25T18:39:52.747Z,2.21
2022-11-25T18:42:40.371Z,2.70
2022-11-25T18:45:27.972Z,2.44
2022-11-25T18:48:15.573Z,2.26
2022-11-25T18:51:03.114Z,2.26
2022-11-25T18:53:50.698Z,2.07
2022-11-25T18:56:38.274Z,2.34
2022-11-25T18:59:25.838Z,2.11
2022-11-25T19:02:13.411Z,2.41
2022-11-25T19:05:01.092Z,2.39
2022-11-25T19:07:48.725Z,2.27
2022-11-25T19:10:36.352Z,2.34
2022-11-25T19:13:23.934Z,2.29
2022-11-25T19:16:11.549Z,2.12
2022-11-25T19:18:59.167Z,2.51
2022-11-25T19:21:46.747Z,2.24
2022-11-25T19:24:34.300Z,2.18
2022-11-25T19:27:21.879Z,2.16
2022-11-25T19:30:09.434Z,1.74
2022-11-25T19:32:56.996Z,1.79
2022-11-25T19:35:44.554Z,1.85
2022-11-25T19:38:33.198Z,1.75
2022-11-25T19:41:20.778Z,2.14
2022-11-25T19:44:08.374Z,2.23
2022-11-25T19:50:03.482Z,2.04
2022-11-25T19:52:51.054Z,2.02
2022-11-25T19:55:38.631Z,2.10
2022-11-25T19:58:26.185Z,1.95
2022-11-25T20:01:13.806Z,2.24
2022-11-25T20:04:01.386Z,2.53
2022-11-25T20:06:48.941Z,2.48
2022-11-25T20:09:36.522Z,2.21
2022-11-25T20:12:24.144Z,1.99
2022-11-25T20:15:11.843Z,1.95
2022-11-25T20:17:59.427Z,1.97
2022-11-25T20:20:47.029Z,1.80
2022-11-25T20:23:38.636Z,1.77
2022-11-25T20:26:29.493Z,1.95
2022-11-25T20:29:17.062Z,1.96
2022-11-25T20:32:04.715Z,2.06
2022-11-25T20:34:52.284Z,1.84
2022-11-25T20:37:39.858Z,1.95
2022-11-25T20:40:27.398Z,2.07
2022-11-25T20:43:15.071Z,2.05
2022-11-25T20:46:02.710Z,2.14
2022-11-25T20:48:50.503Z,2.05
2022-11-25T20:51:40.071Z,2.02
2022-11-25T20:54:27.633Z,2.13
2022-11-25T20:57:15.203Z,1.99
2022-11-25T21:00:02.779Z,2.33
2022-11-25T21:02:50.419Z,2.07
2022-11-25T21:05:38.025Z,2.09
2022-11-25T21:08:25.592Z,2.32
2022-11-25T21:11:13.161Z,2.09
2022-11-25T21:14:00.719Z,1.85
2022-11-25T21:16:48.445Z,1.85
2022-11-25T21:19:36.095Z,2.07
2022-11-25T21:22:23.676Z,2.19
2022-11-25T21:25:11.263Z,1.98
2022-11-25T21:27:58.822Z,1.99
2022-11-25T21:30:46.412Z,2.23
2022-11-25T21:33:33.956Z,1.95
2022-11-25T21:36:21.526Z,1.84
2022-11-25T21:39:09.080Z,1.80
2022-11-25T21:41:56.647Z,2.01
2022-11-25T21:44:44.274Z,1.99
2022-11-25T21:47:31.830Z,2.03
2022-11-25T21:50:19.402Z,1.99
2022-11-25T21:53:06.966Z,1.89
2022-11-25T21:55:54.542Z,1.92
2022-11-25T21:58:42.093Z,1.71
2022-11-25T22:01:29.741Z,2.22
2022-11-25T22:04:17.379Z,1.79
2022-11-25T22:07:04.943Z,2.17
2022-11-25T22:09:52.499Z,2.09
2022-11-25T22:12:41.469Z,2.02
2022-11-25T22:15:29.271Z,2.38
2022-11-25T22:18:16.856Z,2.28
2022-11-25T22:21:04.432Z,2.01
2022-11-25T22:23:52.022Z,2.04
2022-11-25T22:26:39.589Z,1.96
2022-11-25T22:29:27.190Z,2.16
2022-11-25T22:32:14.815Z,2.31
2022-11-25T22:35:02.410Z,2.19
2022-11-25T22:37:55.040Z,2.01
2022-11-25T22:40:43.027Z,1.94
2022-11-25T22:43:30.562Z,1.90
2022-11-25T22:46:18.218Z,2.01
2022-11-25T22:49:05.812Z,1.96
2022-11-25T22:51:53.355Z,2.21
2022-11-25T22:54:40.934Z,2.32
2022-11-25T23:00:16.346Z,2.17
2022-11-25T23:03:03.930Z,2.33
2022-11-25T23:05:51.511Z,2.25
2022-11-25T23:08:39.138Z,2.21
2022-11-25T23:11:26.726Z,2.07
2022-11-25T23:14:14.278Z,2.22
2022-11-25T23:17:01.878Z,2.14
2022-11-25T23:19:49.443Z,2.17
2022-11-25T23:22:37.021Z,2.24
2022-11-25T23:25:24.591Z,2.18
2022-11-25T23:28:12.147Z,2.38
2022-11-25T23:30:59.742Z,2.26
2022-11-25T23:33:47.296Z,2.32
2022-11-25T23:36:34.887Z,2.36
2022-11-25T23:39:22.427Z,2.06
2022-11-25T23:42:09.984Z,2.25
2022-11-25T23:44:57.524Z,1.98
2022-11-25T23:47:45.089Z,2.13
2022-11-25T23:50:32.650Z,2.32
2022-11-25T23:53:20.218Z,2.18
2022-11-25T23:56:07.750Z,2.54
2022-11-25T23:58:55.312Z,2.67
